sensor_id;sensor_type;location;lat;lon;timestamp;temperature;humidity
11812;DHT22;5963;50.184;9.162;2022-08-18T00:01:06;20.30;99.90
11812;DHT22;5963;50.184;9.162;2022-08-18T00:03:36;20.20;99.90
11812;DHT22;5963;50.184;9.162;2022-08-18T00:06:26;20.10;99.90
11812;DHT22;5963;50.184;9.162;2022-08-18T00:08:56;20.00;99.90
11812;DHT22;5963;50.184;9.162;2022-08-18T00:11:25;20.10;99.90
11812;DHT22;5963;50.184;9.162;2022-08-18T00:14:10;20.10;99.90
11812;DHT22;5963;50.184;9.162;2022-08-18T00:16:49;20.10;99.90
11812;DHT22;5963;50.184;9.162;2022-08-18T00:19:20;20.10;99.90
11812;DHT22;5963;50.184;9.162;2022-08-18T00:22:08;20.10;99.90
11812;DHT22;5963;50.184;9.162;2022-08-18T00:24:41;19.90;99.90
11812;DHT22;5963;50.184;9.162;2022-08-18T00:27:18;19.70;99.90
11812;DHT22;5963;50.184;9.162;2022-08-18T00:29:49;19.60;99.90
11812;DHT22;5963;50.184;9.162;2022-08-18T00:32:20;19.60;99.90
11812;DHT22;5963;50.184;9.162;2022-08-18T00:34:51;19.50;99.90
11812;DHT22;5963;50.184;9.162;2022-08-18T00:37:20;19.60;99.90
11812;DHT22;5963;50.184;9.162;2022-08-18T00:39:49;19.60;99.90
11812;DHT22;5963;50.184;9.162;2022-08-18T00:42:20;19.70;99.90
11812;DHT22;5963;50.184;9.162;2022-08-18T00:44:58;19.80;99.90
11812;DHT22;5963;50.184;9.162;2022-08-18T00:47:27;19.80;99.90
11812;DHT22;5963;50.184;9.162;2022-08-18T00:50:20;19.70;99.90
11812;DHT22;5963;50.184;9.162;2022-08-18T00:52:53;19.50;99.90
11812;DHT22;5963;50.184;9.162;2022-08-18T00:55:23;19.40;99.90
11812;DHT22;5963;50.184;9.162;2022-08-18T00:57:54;19.30;99.90
11812;DHT22;5963;50.184;9.162;2022-08-18T01:00:27;19.30;99.90
11812;DHT22;5963;50.184;9.162;2022-08-18T01:02:58;19.30;99.90
11812;DHT22;5963;50.184;9.162;2022-08-18T01:05:30;19.40;99.90
11812;DHT22;5963;50.184;9.162;2022-08-18T01:08:01;19.50;99.90
11812;DHT22;5963;50.184;9.162;2022-08-18T01:10:32;19.50;99.90
11812;DHT22;5963;50.184;9.162;2022-08-18T01:13:01;19.30;99.90
11812;DHT22;5963;50.184;9.162;2022-08-18T01:15:29;19.20;99.90
11812;DHT22;5963;50.184;9.162;2022-08-18T01:17:59;19.10;99.90
11812;DHT22;5963;50.184;9.162;2022-08-18T01:20:49;19.00;99.90
11812;DHT22;5963;50.184;9.162;2022-08-18T01:23:38;19.00;99.90
11812;DHT22;5963;50.184;9.162;2022-08-18T01:26:07;18.90;99.90
11812;DHT22;5963;50.184;9.162;2022-08-18T01:28:43;18.90;99.90
11812;DHT22;5963;50.184;9.162;2022-08-18T01:31:27;19.00;99.90
11812;DHT22;5963;50.184;9.162;2022-08-18T01:33:56;19.10;99.90
11812;DHT22;5963;50.184;9.162;2022-08-18T01:36:25;19.70;99.90
11812;DHT22;5963;50.184;9.162;2022-08-18T01:38:54;19.90;99.90
11812;DHT22;5963;50.184;9.162;2022-08-18T01:41:22;20.00;99.90
11812;DHT22;5963;50.184;9.162;2022-08-18T01:43:57;20.00;99.90
11812;DHT22;5963;50.184;9.162;2022-08-18T01:46:26;20.10;99.90
11812;DHT22;5963;50.184;9.162;2022-08-18T01:48:55;20.20;99.90
11812;DHT22;5963;50.184;9.162;2022-08-18T01:51:25;20.20;99.90
11812;DHT22;5963;50.184;9.162;2022-08-18T01:54:08;20.20;99.90
11812;DHT22;5963;50.184;9.162;2022-08-18T01:56:36;20.20;99.90
11812;DHT22;5963;50.184;9.162;2022-08-18T01:59:05;20.20;99.90
11812;DHT22;5963;50.184;9.162;2022-08-18T02:01:37;20.20;99.90
11812;DHT22;5963;50.184;9.162;2022-08-18T02:04:16;20.30;99.90
11812;DHT22;5963;50.184;9.162;2022-08-18T02:07:05;20.20;99.90
11812;DHT22;5963;50.184;9.162;2022-08-18T02:09:37;20.10;99.90
11812;DHT22;5963;50.184;9.162;2022-08-18T02:12:06;20.00;99.90
11812;DHT22;5963;50.184;9.162;2022-08-18T02:14:35;19.90;99.90
11812;DHT22;5963;50.184;9.162;2022-08-18T02:17:05;20.00;99.90
11812;DHT22;5963;50.184;9.162;2022-08-18T02:19:36;20.00;99.90
11812;DHT22;5963;50.184;9.162;2022-08-18T02:22:06;19.80;99.90
11812;DHT22;5963;50.184;9.162;2022-08-18T02:24:36;19.50;99.90
11812;DHT22;5963;50.184;9.162;2022-08-18T02:27:04;19.20;99.90
11812;DHT22;5963;50.184;9.162;2022-08-18T02:29:32;19.10;99.90
11812;DHT22;5963;50.184;9.162;2022-08-18T02:32:01;19.10;99.90
11812;DHT22;5963;50.184;9.162;2022-08-18T02:34:29;19.20;99.90
11812;DHT22;5963;50.184;9.162;2022-08-18T02:36:58;19.30;99.90
11812;DHT22;5963;50.184;9.162;2022-08-18T02:39:26;19.40;99.90
11812;DHT22;5963;50.184;9.162;2022-08-18T02:41:56;19.30;99.90
11812;DHT22;5963;50.184;9.162;2022-08-18T02:44:25;19.30;99.90
11812;DHT22;5963;50.184;9.162;2022-08-18T02:46:53;19.20;99.90
11812;DHT22;5963;50.184;9.162;2022-08-18T02:49:21;19.00;99.90
11812;DHT22;5963;50.184;9.162;2022-08-18T02:51:51;18.80;99.90
11812;DHT22;5963;50.184;9.162;2022-08-18T02:54:21;18.80;99.90
11812;DHT22;5963;50.184;9.162;2022-08-18T02:56:50;18.90;99.90
11812;DHT22;5963;50.184;9.162;2022-08-18T02:59:21;18.90;99.90
11812;DHT22;5963;50.184;9.162;2022-08-18T03:01:54;19.10;99.90
11812;DHT22;5963;50.184;9.162;2022-08-18T03:04:24;19.10;99.90
11812;DHT22;5963;50.184;9.162;2022-08-18T03:06:58;19.00;99.90
11812;DHT22;5963;50.184;9.162;2022-08-18T03:09:27;19.20;99.90
11812;DHT22;5963;50.184;9.162;2022-08-18T03:11:56;19.40;99.90
11812;DHT22;5963;50.184;9.162;2022-08-18T03:14:26;19.40;99.90
11812;DHT22;5963;50.184;9.162;2022-08-18T03:16:54;19.40;99.90
11812;DHT22;5963;50.184;9.162;2022-08-18T03:19:23;19.40;99.90
11812;DHT22;5963;50.184;9.162;2022-08-18T03:21:52;19.40;99.90
11812;DHT22;5963;50.184;9.162;2022-08-18T03:24:24;19.50;99.90
11812;DHT22;5963;50.184;9.162;2022-08-18T03:26:53;19.60;99.90
11812;DHT22;5963;50.184;9.162;2022-08-18T03:29:23;19.60;99.90
11812;DHT22;5963;50.184;9.162;2022-08-18T03:31:59;19.60;99.90
11812;DHT22;5963;50.184;9.162;2022-08-18T03:34:28;19.20;99.90
11812;DHT22;5963;50.184;9.162;2022-08-18T03:36:58;19.00;99.90
11812;DHT22;5963;50.184;9.162;2022-08-18T03:39:26;18.90;99.90
11812;DHT22;5963;50.184;9.162;2022-08-18T03:41:55;19.00;99.90
11812;DHT22;5963;50.184;9.162;2022-08-18T03:44:29;19.00;99.90
11812;DHT22;5963;50.184;9.162;2022-08-18T03:46:59;19.10;99.90
11812;DHT22;5963;50.184;9.162;2022-08-18T03:49:29;19.10;99.90
11812;DHT22;5963;50.184;9.162;2022-08-18T03:51:58;18.90;99.90
11812;DHT22;5963;50.184;9.162;2022-08-18T03:54:28;18.80;99.90
11812;DHT22;5963;50.184;9.162;2022-08-18T03:56:57;18.70;99.90
11812;DHT22;5963;50.184;9.162;2022-08-18T03:59:25;18.60;99.90
11812;DHT22;5963;50.184;9.162;2022-08-18T04:01:54;18.70;99.90
11812;DHT22;5963;50.184;9.162;2022-08-18T04:04:26;18.70;99.90
11812;DHT22;5963;50.184;9.162;2022-08-18T04:06:56;18.70;99.90
11812;DHT22;5963;50.184;9.162;2022-08-18T04:09:27;18.80;99.90
11812;DHT22;5963;50.184;9.162;2022-08-18T04:11:56;18.90;99.90
11812;DHT22;5963;50.184;9.162;2022-08-18T04:14:26;19.00;99.90
11812;DHT22;5963;50.184;9.162;2022-08-18T04:16:56;19.10;99.90
11812;DHT22;5963;50.184;9.162;2022-08-18T04:19:25;19.10;99.90
11812;DHT22;5963;50.184;9.162;2022-08-18T04:21:55;19.10;99.90
11812;DHT22;5963;50.184;9.162;2022-08-18T04:24:26;18.90;99.90
11812;DHT22;5963;50.184;9.162;2022-08-18T04:26:58;18.80;99.90
11812;DHT22;5963;50.184;9.162;2022-08-18T04:29:27;18.70;99.90
11812;DHT22;5963;50.184;9.162;2022-08-18T04:31:56;18.70;99.90
11812;DHT22;5963;50.184;9.162;2022-08-18T04:34:28;18.60;99.90
11812;DHT22;5963;50.184;9.162;2022-08-18T04:36:56;18.60;99.90
11812;DHT22;5963;50.184;9.162;2022-08-18T04:39:24;18.60;99.90
11812;DHT22;5963;50.184;9.162;2022-08-18T04:41:52;18.60;99.90
11812;DHT22;5963;50.184;9.162;2022-08-18T04:44:21;18.80;99.90
11812;DHT22;5963;50.184;9.162;2022-08-18T04:46:51;18.90;99.90
11812;DHT22;5963;50.184;9.162;2022-08-18T04:49:21;19.10;99.90
11812;DHT22;5963;50.184;9.162;2022-08-18T04:51:53;19.30;99.90
11812;DHT22;5963;50.184;9.162;2022-08-18T04:54:59;19.40;99.90
11812;DHT22;5963;50.184;9.162;2022-08-18T04:57:28;19.50;99.90
11812;DHT22;5963;50.184;9.162;2022-08-18T05:00:11;19.50;99.90
11812;DHT22;5963;50.184;9.162;2022-08-18T05:02:40;19.60;99.90
11812;DHT22;5963;50.184;9.162;2022-08-18T05:05:08;19.60;99.90
11812;DHT22;5963;50.184;9.162;2022-08-18T05:07:42;19.60;99.90
11812;DHT22;5963;50.184;9.162;2022-08-18T05:10:12;19.60;99.90
11812;DHT22;5963;50.184;9.162;2022-08-18T05:12:46;19.50;99.90
11812;DHT22;5963;50.184;9.162;2022-08-18T05:15:14;19.50;99.90
11812;DHT22;5963;50.184;9.162;2022-08-18T05:17:45;19.40;99.90
11812;DHT22;5963;50.184;9.162;2022-08-18T05:20:17;19.20;99.90
11812;DHT22;5963;50.184;9.162;2022-08-18T05:22:46;19.00;99.90
11812;DHT22;5963;50.184;9.162;2022-08-18T05:25:15;18.90;99.90
11812;DHT22;5963;50.184;9.162;2022-08-18T05:27:43;19.00;99.90
11812;DHT22;5963;50.184;9.162;2022-08-18T05:30:12;19.10;99.90
11812;DHT22;5963;50.184;9.162;2022-08-18T05:32:42;19.10;99.90
11812;DHT22;5963;50.184;9.162;2022-08-18T05:35:19;19.00;99.90
11812;DHT22;5963;50.184;9.162;2022-08-18T05:38:06;18.90;99.90
11812;DHT22;5963;50.184;9.162;2022-08-18T05:40:37;19.10;99.90
11812;DHT22;5963;50.184;9.162;2022-08-18T05:43:06;19.20;99.90
11812;DHT22;5963;50.184;9.162;2022-08-18T05:45:34;19.30;99.90
11812;DHT22;5963;50.184;9.162;2022-08-18T05:48:03;19.40;99.90
11812;DHT22;5963;50.184;9.162;2022-08-18T05:50:33;19.60;99.90
11812;DHT22;5963;50.184;9.162;2022-08-18T05:53:06;19.60;99.90
11812;DHT22;5963;50.184;9.162;2022-08-18T05:55:43;19.50;99.90
11812;DHT22;5963;50.184;9.162;2022-08-18T05:58:32;19.60;99.90
11812;DHT22;5963;50.184;9.162;2022-08-18T06:01:03;19.50;99.90
11812;DHT22;5963;50.184;9.162;2022-08-18T06:03:34;19.40;99.90
11812;DHT22;5963;50.184;9.162;2022-08-18T06:06:15;19.40;99.90
11812;DHT22;5963;50.184;9.162;2022-08-18T06:08:51;19.40;99.90
11812;DHT22;5963;50.184;9.162;2022-08-18T06:11:20;19.40;99.90
11812;DHT22;5963;50.184;9.162;2022-08-18T06:13:50;19.40;99.90
11812;DHT22;5963;50.184;9.162;2022-08-18T06:16:39;19.50;99.90
11812;DHT22;5963;50.184;9.162;2022-08-18T06:19:24;19.50;99.90
11812;DHT22;5963;50.184;9.162;2022-08-18T06:21:59;19.50;99.90
11812;DHT22;5963;50.184;9.162;2022-08-18T06:24:35;19.00;99.90
11812;DHT22;5963;50.184;9.162;2022-08-18T06:27:09;18.90;99.90
11812;DHT22;5963;50.184;9.162;2022-08-18T06:29:50;18.90;99.90
11812;DHT22;5963;50.184;9.162;2022-08-18T06:32:32;18.80;99.90
11812;DHT22;5963;50.184;9.162;2022-08-18T06:35:12;19.00;99.90
11812;DHT22;5963;50.184;9.162;2022-08-18T06:37:49;19.20;99.90
11812;DHT22;5963;50.184;9.162;2022-08-18T06:40:37;19.20;99.90
11812;DHT22;5963;50.184;9.162;2022-08-18T06:43:10;19.10;99.90
11812;DHT22;5963;50.184;9.162;2022-08-18T06:45:40;19.20;99.90
11812;DHT22;5963;50.184;9.162;2022-08-18T06:48:14;19.10;99.90
11812;DHT22;5963;50.184;9.162;2022-08-18T06:50:49;19.10;99.90
11812;DHT22;5963;50.184;9.162;2022-08-18T06:53:19;19.10;99.90
11812;DHT22;5963;50.184;9.162;2022-08-18T06:55:55;19.10;99.90
11812;DHT22;5963;50.184;9.162;2022-08-18T06:58:26;19.20;99.90
11812;DHT22;5963;50.184;9.162;2022-08-18T07:00:59;19.20;99.90
11812;DHT22;5963;50.184;9.162;2022-08-18T07:03:43;19.00;99.90
11812;DHT22;5963;50.184;9.162;2022-08-18T07:06:26;18.90;99.90
11812;DHT22;5963;50.184;9.162;2022-08-18T07:09:20;19.00;99.90
11812;DHT22;5963;50.184;9.162;2022-08-18T07:12:03;18.90;99.90
11812;DHT22;5963;50.184;9.162;2022-08-18T07:14:41;19.00;99.90
11812;DHT22;5963;50.184;9.162;2022-08-18T07:17:12;19.20;99.90
11812;DHT22;5963;50.184;9.162;2022-08-18T07:19:40;19.20;99.90
11812;DHT22;5963;50.184;9.162;2022-08-18T07:22:11;19.00;99.90
11812;DHT22;5963;50.184;9.162;2022-08-18T07:24:44;19.00;99.90
11812;DHT22;5963;50.184;9.162;2022-08-18T07:27:17;19.00;99.90
11812;DHT22;5963;50.184;9.162;2022-08-18T07:29:59;19.10;99.90
11812;DHT22;5963;50.184;9.162;2022-08-18T07:32:36;19.10;99.90
11812;DHT22;5963;50.184;9.162;2022-08-18T07:35:08;19.00;99.90
11812;DHT22;5963;50.184;9.162;2022-08-18T07:37:42;18.90;99.90
11812;DHT22;5963;50.184;9.162;2022-08-18T07:40:19;18.90;99.90
11812;DHT22;5963;50.184;9.162;2022-08-18T07:42:55;18.90;99.90
11812;DHT22;5963;50.184;9.162;2022-08-18T07:45:32;19.00;99.90
11812;DHT22;5963;50.184;9.162;2022-08-18T07:48:09;19.10;99.90
11812;DHT22;5963;50.184;9.162;2022-08-18T07:51:04;19.00;99.90
11812;DHT22;5963;50.184;9.162;2022-08-18T07:53:45;19.10;99.90
11812;DHT22;5963;50.184;9.162;2022-08-18T07:56:31;19.10;99.90
11812;DHT22;5963;50.184;9.162;2022-08-18T07:59:11;19.20;99.90
11812;DHT22;5963;50.184;9.162;2022-08-18T08:01:48;19.20;99.90
11812;DHT22;5963;50.184;9.162;2022-08-18T08:04:26;19.30;99.90
11812;DHT22;5963;50.184;9.162;2022-08-18T08:07:01;19.40;99.90
11812;DHT22;5963;50.184;9.162;2022-08-18T08:10:00;19.40;99.90
11812;DHT22;5963;50.184;9.162;2022-08-18T08:12:41;19.40;99.90
11812;DHT22;5963;50.184;9.162;2022-08-18T08:15:18;19.50;99.90
11812;DHT22;5963;50.184;9.162;2022-08-18T08:17:57;19.60;99.90
11812;DHT22;5963;50.184;9.162;2022-08-18T08:20:31;19.50;99.90
11812;DHT22;5963;50.184;9.162;2022-08-18T08:23:06;19.50;99.90
11812;DHT22;5963;50.184;9.162;2022-08-18T08:25:46;19.50;99.90
11812;DHT22;5963;50.184;9.162;2022-08-18T08:28:24;19.60;99.90
11812;DHT22;5963;50.184;9.162;2022-08-18T08:31:08;19.50;99.90
11812;DHT22;5963;50.184;9.162;2022-08-18T08:34:02;19.70;99.90
11812;DHT22;5963;50.184;9.162;2022-08-18T08:36:36;19.80;99.90
11812;DHT22;5963;50.184;9.162;2022-08-18T08:39:11;19.90;99.90
11812;DHT22;5963;50.184;9.162;2022-08-18T08:41:43;20.00;99.90
11812;DHT22;5963;50.184;9.162;2022-08-18T08:44:17;20.20;99.90
11812;DHT22;5963;50.184;9.162;2022-08-18T08:46:51;20.20;99.90
11812;DHT22;5963;50.184;9.162;2022-08-18T08:49:27;20.30;99.90
11812;DHT22;5963;50.184;9.162;2022-08-18T08:52:01;20.30;99.90
11812;DHT22;5963;50.184;9.162;2022-08-18T08:54:37;20.30;99.90
11812;DHT22;5963;50.184;9.162;2022-08-18T08:57:08;20.30;99.90
11812;DHT22;5963;50.184;9.162;2022-08-18T08:59:41;20.40;99.90
11812;DHT22;5963;50.184;9.162;2022-08-18T09:02:32;20.60;99.90
11812;DHT22;5963;50.184;9.162;2022-08-18T09:05:17;20.70;99.90
11812;DHT22;5963;50.184;9.162;2022-08-18T09:14:03;20.90;99.90
11812;DHT22;5963;50.184;9.162;2022-08-18T09:16:45;20.80;99.90
11812;DHT22;5963;50.184;9.162;2022-08-18T09:19:40;20.90;99.90
11812;DHT22;5963;50.184;9.162;2022-08-18T09:22:20;20.70;99.90
11812;DHT22;5963;50.184;9.162;2022-08-18T09:24:54;20.50;99.90
11812;DHT22;5963;50.184;9.162;2022-08-18T09:27:33;20.60;99.90
11812;DHT22;5963;50.184;9.162;2022-08-18T09:30:39;20.90;99.90
11812;DHT22;5963;50.184;9.162;2022-08-18T09:33:23;21.20;99.90
11812;DHT22;5963;50.184;9.162;2022-08-18T09:42:09;22.10;99.90
11812;DHT22;5963;50.184;9.162;2022-08-18T09:44:59;22.30;99.90
11812;DHT22;5963;50.184;9.162;2022-08-18T09:47:59;22.30;99.90
11812;DHT22;5963;50.184;9.162;2022-08-18T09:50:37;22.30;99.90
11812;DHT22;5963;50.184;9.162;2022-08-18T09:53:34;21.80;99.90
11812;DHT22;5963;50.184;9.162;2022-08-18T09:56:06;21.90;99.90
11812;DHT22;5963;50.184;9.162;2022-08-18T09:58:55;21.60;99.90
11812;DHT22;5963;50.184;9.162;2022-08-18T10:01:39;21.30;99.90
11812;DHT22;5963;50.184;9.162;2022-08-18T10:04:24;21.10;99.90
11812;DHT22;5963;50.184;9.162;2022-08-18T10:07:16;21.40;99.90
11812;DHT22;5963;50.184;9.162;2022-08-18T10:09:57;21.40;99.90
11812;DHT22;5963;50.184;9.162;2022-08-18T10:12:51;21.30;99.90
11812;DHT22;5963;50.184;9.162;2022-08-18T10:15:33;21.30;99.90
11812;DHT22;5963;50.184;9.162;2022-08-18T10:18:17;21.20;99.90
11812;DHT22;5963;50.184;9.162;2022-08-18T10:20:57;21.30;99.90
11812;DHT22;5963;50.184;9.162;2022-08-18T10:23:55;21.30;99.90
11812;DHT22;5963;50.184;9.162;2022-08-18T10:27:06;21.50;99.90
11812;DHT22;5963;50.184;9.162;2022-08-18T10:29:55;21.80;99.90
11812;DHT22;5963;50.184;9.162;2022-08-18T10:32:40;21.50;99.90
11812;DHT22;5963;50.184;9.162;2022-08-18T10:38:34;21.50;99.90
11812;DHT22;5963;50.184;9.162;2022-08-18T10:41:08;21.70;99.90
11812;DHT22;5963;50.184;9.162;2022-08-18T10:43:44;21.80;99.90
11812;DHT22;5963;50.184;9.162;2022-08-18T10:46:30;22.00;99.90
11812;DHT22;5963;50.184;9.162;2022-08-18T10:49:18;22.10;99.90
11812;DHT22;5963;50.184;9.162;2022-08-18T10:52:25;22.10;99.90
11812;DHT22;5963;50.184;9.162;2022-08-18T10:58:02;22.00;99.90
11812;DHT22;5963;50.184;9.162;2022-08-18T11:00:50;21.90;99.90
11812;DHT22;5963;50.184;9.162;2022-08-18T11:03:35;22.00;99.90
11812;DHT22;5963;50.184;9.162;2022-08-18T11:06:22;22.20;99.90
11812;DHT22;5963;50.184;9.162;2022-08-18T11:08:54;22.30;99.90
11812;DHT22;5963;50.184;9.162;2022-08-18T11:11:26;22.30;99.90
11812;DHT22;5963;50.184;9.162;2022-08-18T11:14:24;22.20;99.90
11812;DHT22;5963;50.184;9.162;2022-08-18T11:16:59;22.20;99.90
11812;DHT22;5963;50.184;9.162;2022-08-18T11:19:37;22.10;99.90
11812;DHT22;5963;50.184;9.162;2022-08-18T11:22:23;22.10;99.90
11812;DHT22;5963;50.184;9.162;2022-08-18T11:25:03;21.90;99.90
11812;DHT22;5963;50.184;9.162;2022-08-18T11:27:48;21.90;99.90
11812;DHT22;5963;50.184;9.162;2022-08-18T11:30:19;22.00;99.90
11812;DHT22;5963;50.184;9.162;2022-08-18T11:32:57;21.80;99.90
11812;DHT22;5963;50.184;9.162;2022-08-18T11:35:31;21.80;99.90
11812;DHT22;5963;50.184;9.162;2022-08-18T11:38:09;22.10;99.90
11812;DHT22;5963;50.184;9.162;2022-08-18T11:40:48;22.10;99.90
11812;DHT22;5963;50.184;9.162;2022-08-18T11:43:38;22.40;99.90
11812;DHT22;5963;50.184;9.162;2022-08-18T11:46:16;22.80;99.90
11812;DHT22;5963;50.184;9.162;2022-08-18T11:49:15;23.10;99.90
11812;DHT22;5963;50.184;9.162;2022-08-18T11:51:58;23.30;99.90
11812;DHT22;5963;50.184;9.162;2022-08-18T11:54:41;23.70;99.90
11812;DHT22;5963;50.184;9.162;2022-08-18T11:57:39;24.20;99.90
11812;DHT22;5963;50.184;9.162;2022-08-18T12:00:38;24.70;99.90
11812;DHT22;5963;50.184;9.162;2022-08-18T12:03:19;25.00;99.90
11812;DHT22;5963;50.184;9.162;2022-08-18T12:05:53;25.20;99.90
11812;DHT22;5963;50.184;9.162;2022-08-18T12:08:30;25.20;99.90
11812;DHT22;5963;50.184;9.162;2022-08-18T12:11:23;25.10;99.90
11812;DHT22;5963;50.184;9.162;2022-08-18T12:14:18;25.20;99.90
11812;DHT22;5963;50.184;9.162;2022-08-18T12:16:58;25.10;99.90
11812;DHT22;5963;50.184;9.162;2022-08-18T12:19:27;25.20;99.90
11812;DHT22;5963;50.184;9.162;2022-08-18T12:21:59;25.20;99.90
11812;DHT22;5963;50.184;9.162;2022-08-18T12:24:38;25.50;99.90
11812;DHT22;5963;50.184;9.162;2022-08-18T12:27:07;25.70;99.90
11812;DHT22;5963;50.184;9.162;2022-08-18T12:29:56;25.80;99.90
11812;DHT22;5963;50.184;9.162;2022-08-18T12:32:28;26.10;99.90
11812;DHT22;5963;50.184;9.162;2022-08-18T12:35:16;26.30;99.90
11812;DHT22;5963;50.184;9.162;2022-08-18T12:37:48;26.40;99.90
11812;DHT22;5963;50.184;9.162;2022-08-18T12:40:38;26.60;99.90
11812;DHT22;5963;50.184;9.162;2022-08-18T12:43:06;26.70;99.90
11812;DHT22;5963;50.184;9.162;2022-08-18T12:45:35;26.60;99.90
11812;DHT22;5963;50.184;9.162;2022-08-18T12:48:05;26.80;99.90
11812;DHT22;5963;50.184;9.162;2022-08-18T12:50:34;27.10;99.90
11812;DHT22;5963;50.184;9.162;2022-08-18T12:53:21;27.20;99.90
11812;DHT22;5963;50.184;9.162;2022-08-18T12:56:18;27.20;99.90
11812;DHT22;5963;50.184;9.162;2022-08-18T12:58:46;27.20;99.90
11812;DHT22;5963;50.184;9.162;2022-08-18T13:01:15;27.00;99.90
11812;DHT22;5963;50.184;9.162;2022-08-18T13:03:44;26.90;99.90
11812;DHT22;5963;50.184;9.162;2022-08-18T13:06:37;26.80;99.90
11812;DHT22;5963;50.184;9.162;2022-08-18T13:09:20;26.50;99.90
11812;DHT22;5963;50.184;9.162;2022-08-18T13:12:11;26.50;99.90
11812;DHT22;5963;50.184;9.162;2022-08-18T13:14:42;26.20;99.90
11812;DHT22;5963;50.184;9.162;2022-08-18T13:17:12;26.20;99.90
11812;DHT22;5963;50.184;9.162;2022-08-18T13:20:00;26.30;99.90
11812;DHT22;5963;50.184;9.162;2022-08-18T13:22:29;26.30;99.90
11812;DHT22;5963;50.184;9.162;2022-08-18T13:25:00;26.30;99.90
11812;DHT22;5963;50.184;9.162;2022-08-18T13:27:33;26.20;99.90
11812;DHT22;5963;50.184;9.162;2022-08-18T13:30:06;26.20;99.90
11812;DHT22;5963;50.184;9.162;2022-08-18T13:32:55;26.20;99.90
11812;DHT22;5963;50.184;9.162;2022-08-18T13:35:31;26.30;99.90
11812;DHT22;5963;50.184;9.162;2022-08-18T13:38:10;26.40;99.90
11812;DHT22;5963;50.184;9.162;2022-08-18T13:40:47;26.40;99.90
11812;DHT22;5963;50.184;9.162;2022-08-18T13:43:19;26.30;99.90
11812;DHT22;5963;50.184;9.162;2022-08-18T13:45:49;26.40;99.90
11812;DHT22;5963;50.184;9.162;2022-08-18T13:48:22;26.30;99.90
11812;DHT22;5963;50.184;9.162;2022-08-18T13:50:52;26.00;99.90
11812;DHT22;5963;50.184;9.162;2022-08-18T13:53:22;25.50;99.90
11812;DHT22;5963;50.184;9.162;2022-08-18T13:55:53;25.60;99.90
11812;DHT22;5963;50.184;9.162;2022-08-18T13:58:27;25.80;99.90
11812;DHT22;5963;50.184;9.162;2022-08-18T14:01:00;25.60;99.90
11812;DHT22;5963;50.184;9.162;2022-08-18T14:03:49;25.40;99.90
11812;DHT22;5963;50.184;9.162;2022-08-18T14:06:18;25.40;99.90
11812;DHT22;5963;50.184;9.162;2022-08-18T14:08:50;25.20;99.90
11812;DHT22;5963;50.184;9.162;2022-08-18T14:11:19;25.40;99.90
11812;DHT22;5963;50.184;9.162;2022-08-18T14:13:53;25.40;99.90
11812;DHT22;5963;50.184;9.162;2022-08-18T14:16:21;25.40;99.90
11812;DHT22;5963;50.184;9.162;2022-08-18T14:18:53;25.60;99.90
11812;DHT22;5963;50.184;9.162;2022-08-18T14:21:42;25.80;99.90
11812;DHT22;5963;50.184;9.162;2022-08-18T14:24:28;25.80;99.90
11812;DHT22;5963;50.184;9.162;2022-08-18T14:27:15;26.20;99.90
11812;DHT22;5963;50.184;9.162;2022-08-18T14:29:45;26.40;99.90
11812;DHT22;5963;50.184;9.162;2022-08-18T14:32:20;26.50;99.90
11812;DHT22;5963;50.184;9.162;2022-08-18T14:34:56;26.90;99.90
11812;DHT22;5963;50.184;9.162;2022-08-18T14:37:27;26.90;99.90
11812;DHT22;5963;50.184;9.162;2022-08-18T14:39:55;26.60;99.90
11812;DHT22;5963;50.184;9.162;2022-08-18T14:42:23;26.90;99.90
11812;DHT22;5963;50.184;9.162;2022-08-18T14:45:00;27.10;99.90
11812;DHT22;5963;50.184;9.162;2022-08-18T14:47:48;27.20;99.90
11812;DHT22;5963;50.184;9.162;2022-08-18T14:50:20;26.90;99.90
11812;DHT22;5963;50.184;9.162;2022-08-18T14:52:51;27.00;99.90
11812;DHT22;5963;50.184;9.162;2022-08-18T14:55:19;26.80;99.90
11812;DHT22;5963;50.184;9.162;2022-08-18T14:57:48;26.80;99.90
11812;DHT22;5963;50.184;9.162;2022-08-18T15:00:18;26.80;99.90
11812;DHT22;5963;50.184;9.162;2022-08-18T15:02:48;26.70;99.90
11812;DHT22;5963;50.184;9.162;2022-08-18T15:05:17;26.70;99.90
11812;DHT22;5963;50.184;9.162;2022-08-18T15:07:51;26.80;99.90
11812;DHT22;5963;50.184;9.162;2022-08-18T15:10:19;26.80;99.90
11812;DHT22;5963;50.184;9.162;2022-08-18T15:12:54;26.70;99.90
11812;DHT22;5963;50.184;9.162;2022-08-18T15:15:25;26.70;99.90
11812;DHT22;5963;50.184;9.162;2022-08-18T15:18:13;26.60;99.90
11812;DHT22;5963;50.184;9.162;2022-08-18T15:20:48;26.50;99.90
11812;DHT22;5963;50.184;9.162;2022-08-18T15:23:44;26.30;99.90
11812;DHT22;5963;50.184;9.162;2022-08-18T15:26:41;26.30;99.90
11812;DHT22;5963;50.184;9.162;2022-08-18T15:29:10;26.40;99.90
11812;DHT22;5963;50.184;9.162;2022-08-18T15:31:42;26.40;99.90
11812;DHT22;5963;50.184;9.162;2022-08-18T15:34:23;26.30;99.90
11812;DHT22;5963;50.184;9.162;2022-08-18T15:36:53;26.30;99.90
11812;DHT22;5963;50.184;9.162;2022-08-18T15:39:22;26.30;99.90
11812;DHT22;5963;50.184;9.162;2022-08-18T15:41:55;26.30;99.90
11812;DHT22;5963;50.184;9.162;2022-08-18T15:44:23;26.20;99.90
11812;DHT22;5963;50.184;9.162;2022-08-18T15:46:55;26.20;99.90
11812;DHT22;5963;50.184;9.162;2022-08-18T15:49:23;26.20;99.90
11812;DHT22;5963;50.184;9.162;2022-08-18T15:51:52;26.20;99.90
11812;DHT22;5963;50.184;9.162;2022-08-18T15:54:22;26.20;99.90
11812;DHT22;5963;50.184;9.162;2022-08-18T15:56:51;26.30;99.90
11812;DHT22;5963;50.184;9.162;2022-08-18T15:59:24;26.40;99.90
11812;DHT22;5963;50.184;9.162;2022-08-18T16:02:06;26.40;99.90
11812;DHT22;5963;50.184;9.162;2022-08-18T16:04:37;26.30;99.90
11812;DHT22;5963;50.184;9.162;2022-08-18T16:07:10;26.20;99.90
11812;DHT22;5963;50.184;9.162;2022-08-18T16:09:39;26.00;99.90
11812;DHT22;5963;50.184;9.162;2022-08-18T16:12:08;25.90;99.90
11812;DHT22;5963;50.184;9.162;2022-08-18T16:14:38;25.80;99.90
11812;DHT22;5963;50.184;9.162;2022-08-18T16:17:07;25.80;99.90
11812;DHT22;5963;50.184;9.162;2022-08-18T16:19:49;25.80;99.90
11812;DHT22;5963;50.184;9.162;2022-08-18T16:22:18;25.90;99.90
11812;DHT22;5963;50.184;9.162;2022-08-18T16:24:47;26.00;99.90
11812;DHT22;5963;50.184;9.162;2022-08-18T16:27:20;26.00;99.90
11812;DHT22;5963;50.184;9.162;2022-08-18T16:29:49;26.10;99.90
11812;DHT22;5963;50.184;9.162;2022-08-18T16:32:21;26.00;99.90
11812;DHT22;5963;50.184;9.162;2022-08-18T16:34:50;26.00;99.90
11812;DHT22;5963;50.184;9.162;2022-08-18T16:37:18;26.10;99.90
11812;DHT22;5963;50.184;9.162;2022-08-18T16:39:46;26.10;99.90
11812;DHT22;5963;50.184;9.162;2022-08-18T16:42:14;26.00;99.90
11812;DHT22;5963;50.184;9.162;2022-08-18T16:44:43;26.00;99.90
11812;DHT22;5963;50.184;9.162;2022-08-18T16:47:11;25.90;99.90
11812;DHT22;5963;50.184;9.162;2022-08-18T16:49:44;25.70;99.90
11812;DHT22;5963;50.184;9.162;2022-08-18T16:52:15;25.50;99.90
11812;DHT22;5963;50.184;9.162;2022-08-18T16:54:44;25.40;99.90
11812;DHT22;5963;50.184;9.162;2022-08-18T16:57:12;25.40;99.90